Time,TemperatureF,DewpointF,PressureIn,WindDirection,WindDirectionDegrees,WindSpeedMPH,WindSpeedGustMPH,Humidity,HourlyPrecipIn,Conditions,Clouds,dailyrainin,SolarRadiationWatts/m^2,SoftwareType,DateUTC
2013-03-23 00:23:00,66.0,66.0,-100.00,NE,39,3.0,6.0,100,0.12,,,0.20,0.000000,,2013-03-23 10:23:00,
2013-03-23 00:33:00,66.0,66.0,-100.00,NE,39,3.0,6.0,100,0.12,,,0.20,0.000000,,2013-03-23 10:33:00,
2013-03-23 00:42:00,66.0,66.0,-100.00,NE,39,3.0,6.0,100,0.12,,,0.20,0.000000,,2013-03-23 10:42:00,
2013-03-23 00:52:00,66.0,66.0,-100.00,NE,39,3.0,6.0,100,0.12,,,0.20,0.000000,,2013-03-23 10:52:00,
2013-03-23 01:22:00,65.0,65.0,-100.00,NW,323,3.0,8.0,100,0.00,,,0.20,0.000000,,2013-03-23 11:22:00,
2013-03-23 01:32:00,65.0,65.0,-100.00,NW,323,3.0,8.0,100,0.00,,,0.20,0.000000,,2013-03-23 11:32:00,
2013-03-23 01:42:00,65.0,65.0,-100.00,NW,323,3.0,8.0,100,0.00,,,0.20,0.000000,,2013-03-23 11:42:00,
2013-03-23 01:51:00,65.0,65.0,-100.00,NW,323,3.0,8.0,100,0.00,,,0.20,0.000000,,2013-03-23 11:51:00,
2013-03-23 02:22:00,63.0,63.0,-100.00,NNW,338,3.0,8.0,100,0.01,,,0.21,0.000000,,2013-03-23 12:22:00,
2013-03-23 02:33:00,63.0,63.0,-100.00,NNW,338,3.0,8.0,100,0.01,,,0.21,0.000000,,2013-03-23 12:33:00,
2013-03-23 02:42:00,63.0,63.0,-100.00,NNW,338,3.0,8.0,100,0.01,,,0.21,0.000000,,2013-03-23 12:42:00,
2013-03-23 02:52:00,63.0,63.0,-100.00,NNW,338,3.0,8.0,100,0.01,,,0.21,0.000000,,2013-03-23 12:52:00,
2013-03-23 03:22:00,63.0,63.0,-100.00,NNE,17,3.0,8.0,100,0.00,,,0.21,0.000000,,2013-03-23 13:22:00,
2013-03-23 03:32:00,63.0,63.0,-100.00,NNE,17,3.0,8.0,100,0.00,,,0.21,0.000000,,2013-03-23 13:32:00,
2013-03-23 03:42:00,63.0,63.0,-100.00,NNE,17,3.0,8.0,100,0.00,,,0.21,0.000000,,2013-03-23 13:42:00,
2013-03-23 03:52:00,63.0,63.0,-100.00,NNE,17,3.0,8.0,100,0.00,,,0.21,0.000000,,2013-03-23 13:52:00,
2013-03-23 04:22:00,64.0,64.0,-100.00,NNW,344,2.0,9.0,100,0.00,,,0.21,0.000000,,2013-03-23 14:22:00,
2013-03-23 04:32:00,64.0,64.0,-100.00,NNW,344,2.0,9.0,100,0.00,,,0.21,0.000000,,2013-03-23 14:32:00,
2013-03-23 04:42:00,64.0,64.0,-100.00,NNW,344,2.0,9.0,100,0.00,,,0.21,0.000000,,2013-03-23 14:42:00,
2013-03-23 04:52:00,64.0,64.0,-100.00,NNW,344,2.0,9.0,100,0.00,,,0.21,0.000000,,2013-03-23 14:52:00,
2013-03-23 05:22:00,62.0,62.0,-100.00,NNW,328,3.0,8.0,100,0.00,,,0.21,0.000000,,2013-03-23 15:22:00,
2013-03-23 05:33:00,62.0,62.0,-100.00,NNW,328,3.0,8.0,100,0.00,,,0.21,0.000000,,2013-03-23 15:33:00,
2013-03-23 05:43:00,62.0,62.0,-100.00,NNW,328,3.0,8.0,100,0.00,,,0.21,0.000000,,2013-03-23 15:43:00,
2013-03-23 05:52:00,62.0,62.0,-100.00,NNW,328,3.0,8.0,100,0.00,,,0.21,0.000000,,2013-03-23 15:52:00,
2013-03-23 06:23:00,64.0,64.0,-100.00,NNE,14,3.0,8.0,100,0.00,,,-99.99,0.000000,,2013-03-23 16:23:00,
2013-03-23 06:32:00,64.0,64.0,-100.00,NNE,14,3.0,8.0,100,0.00,,,-99.99,0.000000,,2013-03-23 16:32:00,
2013-03-23 06:42:00,64.0,64.0,-100.00,NNE,14,3.0,8.0,100,0.00,,,-99.99,0.000000,,2013-03-23 16:42:00,
2013-03-23 06:52:00,64.0,64.0,-100.00,NNE,14,3.0,8.0,100,0.00,,,-99.99,0.000000,,2013-03-23 16:52:00,
2013-03-23 07:22:00,64.0,64.0,-100.00,NW,324,3.0,5.0,100,0.00,,,0.21,3.000000,,2013-03-23 17:22:00,
2013-03-23 07:32:00,64.0,64.0,-100.00,NW,324,3.0,5.0,100,0.00,,,0.21,3.000000,,2013-03-23 17:32:00,
2013-03-23 07:42:00,64.0,64.0,-100.00,NW,324,3.0,5.0,100,0.00,,,0.21,3.000000,,2013-03-23 17:42:00,
2013-03-23 07:52:00,64.0,64.0,-100.00,NW,324,3.0,5.0,100,0.00,,,0.21,3.000000,,2013-03-23 17:52:00,
2013-03-23 08:22:00,66.0,66.0,-100.00,North,3,3.0,6.0,100,0.00,,,0.21,78.000000,,2013-03-23 18:22:00,
2013-03-23 08:32:00,66.0,66.0,-100.00,North,3,3.0,6.0,100,0.00,,,0.21,78.000000,,2013-03-23 18:32:00,
2013-03-23 08:42:00,66.0,66.0,-100.00,North,3,3.0,6.0,100,0.00,,,0.21,78.000000,,2013-03-23 18:42:00,
2013-03-23 08:52:00,66.0,66.0,-100.00,North,3,3.0,6.0,100,0.00,,,0.21,78.000000,,2013-03-23 18:52:00,
2013-03-23 09:22:00,68.0,65.0,-100.00,North,356,4.0,14.0,91,0.00,,,0.21,228.000000,,2013-03-23 19:22:00,
2013-03-23 09:32:00,68.0,65.0,-100.00,North,356,4.0,14.0,91,0.00,,,0.21,228.000000,,2013-03-23 19:32:00,
2013-03-23 09:42:00,68.0,65.0,-100.00,North,356,4.0,14.0,91,0.00,,,0.21,228.000000,,2013-03-23 19:42:00,
2013-03-23 09:52:00,68.0,65.0,-100.00,North,356,4.0,14.0,91,0.00,,,0.21,228.000000,,2013-03-23 19:52:00,
2013-03-23 10:22:00,72.0,66.0,-100.00,NE,37,5.0,13.0,81,0.00,,,0.21,405.000000,,2013-03-23 20:22:00,
2013-03-23 10:32:00,72.0,66.0,-100.00,NE,37,5.0,13.0,81,0.00,,,0.21,405.000000,,2013-03-23 20:32:00,
2013-03-23 10:42:00,72.0,66.0,-100.00,NE,37,5.0,13.0,81,0.00,,,0.21,405.000000,,2013-03-23 20:42:00,
2013-03-23 10:52:00,72.0,66.0,-100.00,NE,37,5.0,13.0,81,0.00,,,0.21,405.000000,,2013-03-23 20:52:00,
2013-03-23 11:22:00,71.0,63.0,-100.00,NE,47,7.0,16.0,75,0.00,,,0.21,610.000000,,2013-03-23 21:22:00,
2013-03-23 11:32:00,71.0,63.0,-100.00,NE,47,7.0,16.0,75,0.00,,,0.21,610.000000,,2013-03-23 21:32:00,
2013-03-23 11:43:00,71.0,63.0,-100.00,NE,47,7.0,16.0,75,0.00,,,0.21,610.000000,,2013-03-23 21:43:00,
2013-03-23 11:53:00,71.0,63.0,-100.00,NE,47,7.0,16.0,75,0.00,,,0.21,610.000000,,2013-03-23 21:53:00,
2013-03-23 12:23:00,70.0,62.0,-100.00,ESE,118,10.0,21.0,77,0.00,,,0.21,691.000000,,2013-03-23 22:23:00,
2013-03-23 12:32:00,70.0,62.0,-100.00,ESE,118,10.0,21.0,77,0.00,,,0.21,691.000000,,2013-03-23 22:32:00,
2013-03-23 12:42:00,70.0,62.0,-100.00,ESE,118,10.0,21.0,77,0.00,,,0.21,691.000000,,2013-03-23 22:42:00,
2013-03-23 12:52:00,70.0,62.0,-100.00,ESE,118,10.0,21.0,77,0.00,,,0.21,691.000000,,2013-03-23 22:52:00,
2013-03-23 13:22:00,72.0,62.0,-100.00,ENE,59,10.0,20.0,71,0.00,,,0.19,900.000000,,2013-03-23 23:22:00,
2013-03-23 13:32:00,72.0,62.0,-100.00,ENE,59,10.0,20.0,71,0.00,,,0.19,900.000000,,2013-03-23 23:32:00,
2013-03-23 13:42:00,72.0,62.0,-100.00,ENE,59,10.0,20.0,71,0.00,,,0.19,900.000000,,2013-03-23 23:42:00,
2013-03-23 13:52:00,72.0,62.0,-100.00,ENE,59,10.0,20.0,71,0.00,,,0.19,900.000000,,2013-03-23 23:52:00,
2013-03-23 14:22:00,74.0,64.0,-100.00,ENE,63,8.0,19.0,71,0.00,,,0.18,871.000000,,2013-03-24 00:22:00,
2013-03-23 14:32:00,74.0,64.0,-100.00,ENE,63,8.0,19.0,71,0.00,,,0.18,871.000000,,2013-03-24 00:32:00,
2013-03-23 14:42:00,74.0,64.0,-100.00,ENE,63,8.0,19.0,71,0.00,,,0.18,871.000000,,2013-03-24 00:42:00,
2013-03-23 14:52:00,74.0,64.0,-100.00,ENE,63,8.0,19.0,71,0.00,,,0.18,871.000000,,2013-03-24 00:52:00,
2013-03-23 15:22:00,69.0,62.0,-100.00,NNE,20,10.0,22.0,78,0.00,,,0.18,552.000000,,2013-03-24 01:22:00,
2013-03-23 15:32:00,69.0,62.0,-100.00,NNE,20,10.0,22.0,78,0.00,,,0.18,552.000000,,2013-03-24 01:32:00,
2013-03-23 15:42:00,69.0,62.0,-100.00,NNE,20,10.0,22.0,78,0.00,,,0.18,552.000000,,2013-03-24 01:42:00,
2013-03-23 15:52:00,69.0,62.0,-100.00,NNE,20,10.0,22.0,78,0.00,,,0.18,552.000000,,2013-03-24 01:52:00,
2013-03-23 16:22:00,70.0,65.0,-100.00,NE,51,9.0,24.0,83,0.00,,,0.17,369.000000,,2013-03-24 02:22:00,
2013-03-23 16:42:00,70.0,65.0,-100.00,NE,51,9.0,24.0,83,0.00,,,0.17,369.000000,,2013-03-24 02:42:00,
2013-03-23 16:52:00,70.0,65.0,-100.00,NE,51,9.0,24.0,83,0.00,,,0.17,369.000000,,2013-03-24 02:52:00,
2013-03-23 17:22:00,69.0,64.0,-100.00,NE,49,8.0,19.0,84,0.00,,,0.17,250.000000,,2013-03-24 03:22:00,
2013-03-23 17:33:00,69.0,64.0,-100.00,NE,49,8.0,19.0,84,0.00,,,0.17,250.000000,,2013-03-24 03:33:00,
2013-03-23 17:42:00,69.0,64.0,-100.00,NE,49,8.0,19.0,84,0.00,,,0.17,250.000000,,2013-03-24 03:42:00,
2013-03-23 17:52:00,69.0,64.0,-100.00,NE,49,8.0,19.0,84,0.00,,,0.17,250.000000,,2013-03-24 03:52:00,
2013-03-23 18:22:00,66.0,63.0,-100.00,South,172,7.0,22.0,89,0.00,,,0.17,135.000000,,2013-03-24 04:22:00,
2013-03-23 18:32:00,66.0,63.0,-100.00,South,172,7.0,22.0,89,0.00,,,0.17,135.000000,,2013-03-24 04:32:00,
2013-03-23 18:42:00,66.0,63.0,-100.00,South,172,7.0,22.0,89,0.00,,,0.17,135.000000,,2013-03-24 04:42:00,
2013-03-23 18:52:00,66.0,63.0,-100.00,South,172,7.0,22.0,89,0.00,,,0.17,135.000000,,2013-03-24 04:52:00,
2013-03-23 19:22:00,65.0,62.0,-100.00,North,0,9.0,20.0,90,0.00,,,0.17,11.000000,,2013-03-24 05:22:00,
2013-03-23 19:32:00,65.0,62.0,-100.00,North,0,9.0,20.0,90,0.00,,,0.17,11.000000,,2013-03-24 05:32:00,
2013-03-23 19:42:00,65.0,62.0,-100.00,North,0,9.0,20.0,90,0.00,,,0.17,11.000000,,2013-03-24 05:42:00,
2013-03-23 19:51:00,65.0,62.0,-100.00,North,0,9.0,20.0,90,0.00,,,0.17,11.000000,,2013-03-24 05:51:00,
2013-03-23 20:22:00,66.0,64.0,-100.00,WNW,301,6.0,21.0,92,0.00,,,0.17,0.000000,,2013-03-24 06:22:00,
2013-03-23 20:32:00,66.0,64.0,-100.00,WNW,301,6.0,21.0,92,0.00,,,0.17,0.000000,,2013-03-24 06:32:00,
2013-03-23 20:42:00,66.0,64.0,-100.00,WNW,301,6.0,21.0,92,0.00,,,0.17,0.000000,,2013-03-24 06:42:00,
2013-03-23 20:52:00,66.0,64.0,-100.00,WNW,301,6.0,21.0,92,0.00,,,0.17,0.000000,,2013-03-24 06:52:00,
2013-03-23 21:22:00,66.0,64.0,-100.00,ENE,58,8.0,18.0,93,0.00,,,0.17,0.000000,,2013-03-24 07:22:00,
2013-03-23 21:32:00,66.0,64.0,-100.00,ENE,58,8.0,18.0,93,0.00,,,0.17,0.000000,,2013-03-24 07:32:00,
2013-03-23 21:42:00,66.0,64.0,-100.00,ENE,58,8.0,18.0,93,0.00,,,0.17,0.000000,,2013-03-24 07:42:00,
2013-03-23 21:52:00,66.0,64.0,-100.00,ENE,58,8.0,18.0,93,0.00,,,0.17,0.000000,,2013-03-24 07:52:00,
2013-03-23 22:22:00,66.0,64.0,-100.00,ENE,64,5.0,18.0,92,0.00,,,0.17,0.000000,,2013-03-24 08:22:00,
2013-03-23 22:32:00,66.0,64.0,-100.00,ENE,64,5.0,18.0,92,0.00,,,0.17,0.000000,,2013-03-24 08:32:00,
2013-03-23 22:42:00,66.0,64.0,-100.00,ENE,64,5.0,18.0,92,0.00,,,0.17,0.000000,,2013-03-24 08:42:00,
2013-03-23 22:52:00,66.0,64.0,-100.00,ENE,64,5.0,18.0,92,0.00,,,0.17,0.000000,,2013-03-24 08:52:00,
2013-03-23 23:22:00,66.0,64.0,-100.00,ENE,61,7.0,15.0,93,0.00,,,0.13,0.000000,,2013-03-24 09:22:00,
2013-03-23 23:33:00,66.0,64.0,-100.00,ENE,61,7.0,15.0,93,0.00,,,0.13,0.000000,,2013-03-24 09:33:00,
2013-03-23 23:42:00,66.0,64.0,-100.00,ENE,61,7.0,15.0,93,0.00,,,0.13,0.000000,,2013-03-24 09:42:00,
2013-03-23 23:52:00,66.0,64.0,-100.00,ENE,61,7.0,15.0,93,0.00,,,0.13,0.000000,,2013-03-24 09:52:00,